createdAt,value
2022-12-18T00:00:56.429Z,83.96
2022-12-18T00:03:19.060Z,83.86
2022-12-18T00:05:52.205Z,84.11
2022-12-18T00:08:15.072Z,84.01
2022-12-18T00:10:37.780Z,83.89
2022-12-18T00:13:03.825Z,83.39
2022-12-18T00:15:29.242Z,83.16
2022-12-18T00:17:51.944Z,83.18
2022-12-18T00:20:14.549Z,83.03
2022-12-18T00:22:37.310Z,82.94
2022-12-18T00:24:59.892Z,83.29
2022-12-18T00:27:22.436Z,82.92
2022-12-18T00:29:45.240Z,83.23
2022-12-18T00:32:07.869Z,83.20
2022-12-18T00:34:30.809Z,83.18
2022-12-18T00:36:53.305Z,83.78
2022-12-18T00:39:16.034Z,83.77
2022-12-18T00:41:59.403Z,83.63
2022-12-18T00:44:21.996Z,83.96
2022-12-18T00:46:45.571Z,83.65
2022-12-18T00:49:08.195Z,84.13
2022-12-18T00:51:30.905Z,84.35
2022-12-18T00:53:53.802Z,84.65
2022-12-18T00:56:16.415Z,84.07
2022-12-18T00:58:39.067Z,83.83
2022-12-18T01:01:01.811Z,83.86
2022-12-18T01:03:24.607Z,84.30
2022-12-18T01:05:47.551Z,83.83
2022-12-18T01:08:10.507Z,83.99
2022-12-18T01:10:33.222Z,84.40
2022-12-18T01:12:56.694Z,84.39
2022-12-18T01:15:19.836Z,84.51
2022-12-18T01:17:42.644Z,84.56
2022-12-18T01:20:06.532Z,84.54
2022-12-18T01:22:29.134Z,84.29
2022-12-18T01:24:51.711Z,84.23
2022-12-18T01:27:14.521Z,84.31
2022-12-18T01:29:37.058Z,84.28
2022-12-18T01:31:59.756Z,84.76
2022-12-18T01:34:22.953Z,85.13
2022-12-18T01:36:45.728Z,85.02
2022-12-18T01:39:13.829Z,85.16
2022-12-18T01:41:57.364Z,85.18
2022-12-18T01:44:58.939Z,85.10
2022-12-18T01:47:43.665Z,84.89
2022-12-18T01:50:21.172Z,85.41
2022-12-18T01:52:47.715Z,85.32
2022-12-18T01:55:12.051Z,85.72
2022-12-18T01:57:35.880Z,85.37
2022-12-18T02:00:05.297Z,85.40
2022-12-18T02:02:36.459Z,85.42
2022-12-18T02:04:59.418Z,85.29
2022-12-18T02:07:43.764Z,85.69
2022-12-18T02:10:31.415Z,85.48
2022-12-18T02:13:03.935Z,85.52
2022-12-18T02:15:37.056Z,85.95
2022-12-18T02:18:09.555Z,85.62
2022-12-18T02:20:36.188Z,85.56
2022-12-18T02:23:25.386Z,85.11
2022-12-18T02:26:20.780Z,84.75
2022-12-18T02:29:07.120Z,85.49
2022-12-18T02:31:40.035Z,85.50
2022-12-18T02:34:06.515Z,85.71
2022-12-18T02:36:34.331Z,84.96
2022-12-18T02:38:58.133Z,85.02
2022-12-18T02:41:21.996Z,85.35
2022-12-18T02:44:02.730Z,85.46
2022-12-18T02:46:34.202Z,85.17
2022-12-18T02:49:17.117Z,85.44
2022-12-18T02:51:51.558Z,85.56
2022-12-18T02:54:40.879Z,85.28
2022-12-18T02:57:27.427Z,84.93
2022-12-18T03:00:04.720Z,85.10
2022-12-18T03:03:06.262Z,84.87
2022-12-18T03:05:40.816Z,84.75
2022-12-18T03:08:13.412Z,84.74
2022-12-18T03:10:45.394Z,85.01
2022-12-18T03:13:15.569Z,84.96
2022-12-18T03:15:43.552Z,84.70
2022-12-18T03:18:16.058Z,84.49
2022-12-18T03:20:43.592Z,84.70
2022-12-18T03:23:14.059Z,84.88
2022-12-18T03:25:40.735Z,84.89
2022-12-18T03:28:05.348Z,84.87
2022-12-18T03:30:30.608Z,84.83
2022-12-18T03:33:09.947Z,84.42
2022-12-18T03:35:40.163Z,84.18
2022-12-18T03:38:03.256Z,84.33
2022-12-18T03:40:36.334Z,84.90
2022-12-18T03:43:26.677Z,84.57
2022-12-18T03:45:55.602Z,84.93
2022-12-18T03:48:38.799Z,85.14
2022-12-18T03:51:27.908Z,85.14
2022-12-18T03:53:58.111Z,85.25
2022-12-18T03:56:29.615Z,85.01
2022-12-18T03:58:54.998Z,84.97
2022-12-18T04:01:26.899Z,85.02
2022-12-18T04:03:51.175Z,84.96
2022-12-18T04:06:17.459Z,85.22
2022-12-18T04:08:42.128Z,85.53
2022-12-18T04:11:07.588Z,85.43
2022-12-18T04:13:35.276Z,85.19
2022-12-18T04:16:00.701Z,85.55
2022-12-18T04:18:23.839Z,85.30
2022-12-18T04:20:46.601Z,85.25
2022-12-18T04:23:09.790Z,85.23
2022-12-18T04:25:33.122Z,84.89
2022-12-18T04:28:03.002Z,85.14
2022-12-18T04:30:26.147Z,85.88
2022-12-18T04:32:52.151Z,85.22
2022-12-18T04:35:16.205Z,85.76
2022-12-18T04:37:40.223Z,85.71
2022-12-18T04:40:03.110Z,85.72
2022-12-18T04:42:34.042Z,86.16
2022-12-18T04:44:56.634Z,86.30
2022-12-18T04:47:19.186Z,86.16
2022-12-18T04:49:41.914Z,85.91
2022-12-18T04:52:04.972Z,85.82
2022-12-18T04:54:27.656Z,85.69
2022-12-18T04:56:50.261Z,86.03
2022-12-18T04:59:13.063Z,86.04
2022-12-18T05:01:56.546Z,85.79
2022-12-18T05:04:19.296Z,85.88
2022-12-18T05:06:42.551Z,85.70
2022-12-18T05:09:05.177Z,85.63
2022-12-18T05:11:28.537Z,85.87
2022-12-18T05:13:51.088Z,86.11
2022-12-18T05:16:14.806Z,86.81
2022-12-18T05:18:38.077Z,86.06
2022-12-18T05:21:00.951Z,86.14
2022-12-18T05:23:24.634Z,86.08
2022-12-18T05:26:07.144Z,85.99
2022-12-18T05:28:31.679Z,85.94
2022-12-18T05:30:57.102Z,85.86
2022-12-18T05:33:21.243Z,86.14
2022-12-18T05:35:44.048Z,85.89
2022-12-18T05:38:06.703Z,86.08
2022-12-18T05:40:29.281Z,86.57
2022-12-18T05:42:52.927Z,86.29
2022-12-18T05:45:15.592Z,86.61
2022-12-18T05:47:38.237Z,86.70
2022-12-18T05:50:01.433Z,86.97
2022-12-18T05:52:25.101Z,86.60
2022-12-18T05:54:47.676Z,86.40
2022-12-18T05:57:10.293Z,85.85
2022-12-18T05:59:33.177Z,85.99
2022-12-18T06:01:55.884Z,86.05
2022-12-18T06:04:18.603Z,86.82
2022-12-18T06:06:41.217Z,87.02
2022-12-18T06:09:09.280Z,86.88
2022-12-18T06:11:31.845Z,86.82
2022-12-18T06:13:58.591Z,86.86
2022-12-18T06:16:22.230Z,87.13
2022-12-18T06:18:44.853Z,87.42
2022-12-18T06:21:07.742Z,87.48
2022-12-18T06:23:30.254Z,87.55
2022-12-18T06:25:53.446Z,87.57
2022-12-18T06:28:16.533Z,86.58
2022-12-18T06:30:39.144Z,86.49
2022-12-18T06:33:01.810Z,86.36
2022-12-18T06:35:24.591Z,85.96
2022-12-18T06:37:47.132Z,86.35
2022-12-18T06:40:10.189Z,86.28
2022-12-18T06:42:33.079Z,85.73
2022-12-18T06:44:55.840Z,86.25
2022-12-18T06:47:19.100Z,85.87
2022-12-18T06:49:42.064Z,85.60
2022-12-18T06:52:04.641Z,85.99
2022-12-18T06:54:27.446Z,85.56
2022-12-18T06:56:49.943Z,84.68
2022-12-18T06:59:14.664Z,84.55
2022-12-18T07:01:44.439Z,84.05
2022-12-18T07:04:31.592Z,83.98
2022-12-18T07:06:54.296Z,83.72
2022-12-18T07:09:17.332Z,83.81
2022-12-18T07:11:40.223Z,83.65
2022-12-18T07:14:02.871Z,83.35
2022-12-18T07:16:26.099Z,83.09
2022-12-18T07:18:48.959Z,82.78
2022-12-18T07:21:17.506Z,82.89
2022-12-18T07:23:41.065Z,82.86
2022-12-18T07:26:09.754Z,82.53
2022-12-18T07:28:33.459Z,81.99
2022-12-18T07:30:56.123Z,82.01
2022-12-18T07:33:18.959Z,82.04
2022-12-18T07:35:41.608Z,81.30
2022-12-18T07:38:04.329Z,81.15
2022-12-18T07:40:26.945Z,80.95
2022-12-18T07:42:49.532Z,81.26
2022-12-18T07:45:12.345Z,81.25
2022-12-18T07:47:37.136Z,82.11
2022-12-18T07:49:59.958Z,81.79
2022-12-18T07:52:25.968Z,81.22
2022-12-18T07:54:50.972Z,80.89
2022-12-18T07:57:34.020Z,81.62
2022-12-18T07:59:56.116Z,81.71
2022-12-18T08:02:18.822Z,81.70
2022-12-18T08:04:41.534Z,81.71
2022-12-18T08:07:04.084Z,81.53
2022-12-18T08:09:26.868Z,81.28
2022-12-18T08:11:49.454Z,81.68
2022-12-18T08:14:12.200Z,81.54
2022-12-18T08:16:35.245Z,81.06
2022-12-18T08:18:58.223Z,80.94
2022-12-18T08:21:29.473Z,80.93
2022-12-18T08:23:53.791Z,80.95
2022-12-18T08:26:16.845Z,80.94
2022-12-18T08:28:39.693Z,80.66
2022-12-18T08:31:12.754Z,80.90
2022-12-18T08:33:36.188Z,79.79
2022-12-18T08:36:02.661Z,79.67
2022-12-18T08:38:25.413Z,79.50
2022-12-18T08:40:48.196Z,79.29
2022-12-18T08:43:30.075Z,80.12
2022-12-18T08:45:52.824Z,79.29
2022-12-18T08:48:19.277Z,79.87
2022-12-18T08:50:44.681Z,79.50
2022-12-18T08:53:07.490Z,79.76
2022-12-18T08:55:30.433Z,80.05
2022-12-18T08:57:53.019Z,79.99
2022-12-18T09:00:15.887Z,80.18
2022-12-18T09:02:39.849Z,79.07
2022-12-18T09:05:02.511Z,78.70
2022-12-18T09:07:25.176Z,78.20
2022-12-18T09:09:48.028Z,78.16
2022-12-18T09:12:11.136Z,78.27
2022-12-18T09:14:33.786Z,78.36
2022-12-18T09:16:56.383Z,78.54
2022-12-18T09:19:19.094Z,77.73
2022-12-18T09:21:47.609Z,77.97
2022-12-18T09:24:14.398Z,78.08
2022-12-18T09:26:37.575Z,78.08
2022-12-18T09:29:00.685Z,78.49
2022-12-18T09:31:25.585Z,78.77
2022-12-18T09:33:48.420Z,78.25
2022-12-18T09:36:13.452Z,78.06
2022-12-18T09:38:37.046Z,77.89
2022-12-18T09:41:22.759Z,78.28
2022-12-18T09:43:54.776Z,77.55
2022-12-18T09:46:22.754Z,76.99
2022-12-18T09:48:52.400Z,77.20
2022-12-18T09:51:22.477Z,77.27
2022-12-18T09:53:51.727Z,76.75
2022-12-18T09:56:19.601Z,75.84
2022-12-18T09:58:47.616Z,75.21
2022-12-18T10:01:13.092Z,75.48
2022-12-18T10:03:35.775Z,75.40
2022-12-18T10:06:14.569Z,75.77
2022-12-18T10:08:58.919Z,76.10
2022-12-18T10:12:00.429Z,76.21
2022-12-18T10:14:42.915Z,76.49
2022-12-18T10:17:30.055Z,77.43
2022-12-18T10:20:01.976Z,76.08
2022-12-18T10:22:39.503Z,75.45
2022-12-18T10:25:25.544Z,74.92
2022-12-18T10:27:49.315Z,75.07
2022-12-18T10:30:22.129Z,74.96
2022-12-18T10:32:44.671Z,74.71
2022-12-18T10:35:18.120Z,74.30
2022-12-18T10:38:20.345Z,74.98
2022-12-18T10:41:03.356Z,74.49
2022-12-18T10:43:35.724Z,74.24
2022-12-18T10:46:21.646Z,73.98
2022-12-18T10:48:58.746Z,74.64
2022-12-18T10:51:25.263Z,74.30
2022-12-18T10:53:57.828Z,73.53
2022-12-18T10:56:22.096Z,73.23
2022-12-18T10:58:57.711Z,73.60
2022-12-18T11:01:23.652Z,73.35
2022-12-18T11:04:02.320Z,72.85
2022-12-18T11:06:26.165Z,72.52
2022-12-18T11:09:19.932Z,72.52
2022-12-18T11:11:50.286Z,72.81
2022-12-18T11:14:19.337Z,73.04
2022-12-18T11:17:24.777Z,72.70
2022-12-18T11:19:40.880Z,71.62
2022-12-18T11:22:21.394Z,71.83
2022-12-18T11:24:53.127Z,69.46
2022-12-18T11:27:25.402Z,69.72
2022-12-18T11:29:52.042Z,70.47
2022-12-18T11:32:38.221Z,70.57
2022-12-18T11:35:26.325Z,70.27
2022-12-18T11:37:58.601Z,71.00
2022-12-18T11:40:32.240Z,70.39
2022-12-18T11:43:10.894Z,69.60
2022-12-18T11:45:44.141Z,69.07
2022-12-18T11:48:17.329Z,69.63
2022-12-18T11:50:47.456Z,69.53
2022-12-18T11:53:13.948Z,67.00
2022-12-18T11:55:52.167Z,67.26
2022-12-18T11:58:31.646Z,66.81
2022-12-18T12:01:21.344Z,67.24
2022-12-18T12:04:35.088Z,66.42
2022-12-18T12:07:16.183Z,65.19
2022-12-18T12:09:44.940Z,65.39
2022-12-18T12:12:48.750Z,65.75
2022-12-18T12:15:31.979Z,66.94
2022-12-18T12:18:22.380Z,66.77
2022-12-18T12:20:57.279Z,66.51
2022-12-18T12:23:28.895Z,65.69
2022-12-18T12:26:15.832Z,63.21
2022-12-18T12:29:10.229Z,64.06
2022-12-18T12:31:45.272Z,63.30
2022-12-18T12:34:19.974Z,64.17
2022-12-18T12:37:11.804Z,65.13
2022-12-18T12:39:38.904Z,64.40
2022-12-18T12:42:22.050Z,63.39
2022-12-18T12:44:55.771Z,63.66
2022-12-18T12:47:27.908Z,63.31
2022-12-18T12:49:51.711Z,64.00
2022-12-18T12:52:50.033Z,64.03
2022-12-18T12:55:19.867Z,62.68
2022-12-18T12:57:57.716Z,61.76
2022-12-18T13:00:21.012Z,62.18
2022-12-18T13:02:57.762Z,62.85
2022-12-18T13:05:36.415Z,64.18
2022-12-18T13:08:13.388Z,63.91
2022-12-18T13:10:42.996Z,62.77
2022-12-18T13:13:13.311Z,62.79
2022-12-18T13:16:05.488Z,63.65
2022-12-18T13:18:30.195Z,64.06
2022-12-18T13:20:59.956Z,64.95
2022-12-18T13:23:28.149Z,64.88
2022-12-18T13:25:53.059Z,64.68
2022-12-18T13:28:17.680Z,64.33
2022-12-18T13:30:40.224Z,64.29
2022-12-18T13:33:14.977Z,65.70
2022-12-18T13:35:40.408Z,66.55
2022-12-18T13:38:32.634Z,66.62
2022-12-18T13:40:57.299Z,66.02
2022-12-18T13:43:22.613Z,66.50
2022-12-18T13:45:49.047Z,67.22
2022-12-18T13:48:20.280Z,67.80
2022-12-18T13:50:43.581Z,67.69
2022-12-18T13:53:06.427Z,67.72
2022-12-18T13:55:29.725Z,68.05
2022-12-18T13:58:05.067Z,67.82
2022-12-18T14:00:30.585Z,68.28
2022-12-18T14:02:53.774Z,68.28
2022-12-18T14:05:23.636Z,68.61
2022-12-18T14:07:50.679Z,68.95
2022-12-18T14:13:06.895Z,69.95
2022-12-18T14:15:42.258Z,70.15
2022-12-18T14:18:26.309Z,70.04
2022-12-18T14:20:53.193Z,70.63
2022-12-18T14:23:43.381Z,70.26
2022-12-18T14:26:29.385Z,70.47
2022-12-18T14:28:52.281Z,70.62
2022-12-18T14:31:23.271Z,71.00
2022-12-18T14:33:45.871Z,71.26
2022-12-18T14:36:18.066Z,71.45
2022-12-18T14:38:41.441Z,72.15
2022-12-18T14:41:13.315Z,72.64
2022-12-18T14:43:38.983Z,73.06
2022-12-18T14:46:03.894Z,73.38
2022-12-18T14:48:42.742Z,73.83
2022-12-18T14:51:18.578Z,74.53
2022-12-18T14:53:48.890Z,74.84
2022-12-18T14:56:23.174Z,75.40
2022-12-18T14:58:52.819Z,75.09
2022-12-18T15:01:24.048Z,75.33
2022-12-18T15:03:47.039Z,75.63
2022-12-18T15:06:25.218Z,76.35
2022-12-18T15:08:47.911Z,76.86
2022-12-18T15:11:57.108Z,76.68
2022-12-18T15:14:35.900Z,77.40
2022-12-18T15:17:00.631Z,77.99
2022-12-18T15:19:33.492Z,77.77
2022-12-18T15:22:05.875Z,78.55
2022-12-18T15:24:33.217Z,78.26
2022-12-18T15:26:55.900Z,78.63
2022-12-18T15:29:26.288Z,79.00
2022-12-18T15:32:04.380Z,80.26
2022-12-18T15:34:27.853Z,79.69
2022-12-18T15:36:52.312Z,79.65
2022-12-18T15:39:15.056Z,79.27
2022-12-18T15:41:37.902Z,79.85
2022-12-18T15:44:46.062Z,80.12
2022-12-18T15:47:13.024Z,79.80
2022-12-18T15:49:35.935Z,80.38
2022-12-18T15:52:00.871Z,80.61
2022-12-18T15:54:43.804Z,80.74
2022-12-18T15:57:25.626Z,80.88
2022-12-18T15:59:49.112Z,80.53
2022-12-18T16:02:18.563Z,80.82
2022-12-18T16:04:41.516Z,81.47
2022-12-18T16:07:25.223Z,81.15
2022-12-18T16:09:48.705Z,81.00
2022-12-18T16:12:18.064Z,81.56
2022-12-18T16:14:40.817Z,81.21
2022-12-18T16:17:07.127Z,81.06
2022-12-18T16:19:30.860Z,81.50
2022-12-18T16:21:55.930Z,81.73
2022-12-18T16:24:23.984Z,81.49
2022-12-18T16:26:46.741Z,82.06
2022-12-18T16:29:10.471Z,82.31
2022-12-18T16:31:33.928Z,82.47
2022-12-18T16:34:19.484Z,82.68
2022-12-18T16:36:44.742Z,82.62
2022-12-18T16:39:07.569Z,82.20
2022-12-18T16:41:33.392Z,82.12
2022-12-18T16:43:57.278Z,82.52
2022-12-18T16:46:20.565Z,82.41
2022-12-18T16:48:43.437Z,82.65
2022-12-18T16:51:06.472Z,82.73
2022-12-18T16:53:29.422Z,82.53
2022-12-18T16:55:56.500Z,82.78
2022-12-18T16:58:19.418Z,82.87
2022-12-18T17:00:42.295Z,83.25
2022-12-18T17:03:06.219Z,82.96
2022-12-18T17:05:29.310Z,82.92
2022-12-18T17:07:51.936Z,82.87
2022-12-18T17:10:14.968Z,82.78
2022-12-18T17:12:38.864Z,82.28
2022-12-18T17:15:01.692Z,82.50
2022-12-18T17:17:24.812Z,82.78
2022-12-18T17:19:47.859Z,83.59
2022-12-18T17:22:10.440Z,84.62
2022-12-18T17:24:35.365Z,85.01
2022-12-18T17:26:58.427Z,86.02
2022-12-18T17:29:21.533Z,85.35
2022-12-18T17:31:47.888Z,84.75
2022-12-18T17:34:12.549Z,84.37
2022-12-18T17:36:35.206Z,84.68
2022-12-18T17:39:02.323Z,84.41
2022-12-18T17:41:25.887Z,84.26
2022-12-18T17:43:53.963Z,84.44
2022-12-18T17:46:16.769Z,84.81
2022-12-18T17:48:40.391Z,84.93
2022-12-18T17:51:05.045Z,85.18
2022-12-18T17:53:28.084Z,85.05
2022-12-18T17:55:56.390Z,85.45
2022-12-18T17:58:18.945Z,85.45
2022-12-18T18:00:42.868Z,85.25
2022-12-18T18:03:06.016Z,85.38
2022-12-18T18:05:29.189Z,85.71
2022-12-18T18:07:51.969Z,85.81
2022-12-18T18:10:16.989Z,85.70
2022-12-18T18:12:58.651Z,85.70
2022-12-18T18:15:22.191Z,85.85
2022-12-18T18:17:45.112Z,85.94
2022-12-18T18:20:08.693Z,85.96
2022-12-18T18:22:32.521Z,85.86
2022-12-18T18:24:55.392Z,86.09
2022-12-18T18:27:18.487Z,85.57
2022-12-18T18:29:41.516Z,85.49
2022-12-18T18:32:04.851Z,85.88
2022-12-18T18:34:31.389Z,86.35
2022-12-18T18:37:01.624Z,86.00
2022-12-18T18:39:24.982Z,85.98
2022-12-18T18:41:48.632Z,86.13
2022-12-18T18:44:11.897Z,86.70
2022-12-18T18:46:34.673Z,86.47
2022-12-18T18:48:57.584Z,86.38
2022-12-18T18:51:21.857Z,86.36
2022-12-18T18:53:46.945Z,86.37
2022-12-18T18:58:56.081Z,86.26
2022-12-18T19:01:20.979Z,86.36
2022-12-18T19:03:44.937Z,86.41
2022-12-18T19:06:08.813Z,86.46
2022-12-18T19:08:37.247Z,86.38
2022-12-18T19:11:01.571Z,86.71
2022-12-18T19:13:26.973Z,86.97
2022-12-18T19:15:49.957Z,87.26
2022-12-18T19:18:12.768Z,87.48
2022-12-18T19:20:35.799Z,87.21
2022-12-18T19:22:58.939Z,87.17
2022-12-18T19:25:21.961Z,87.13
2022-12-18T19:27:44.929Z,86.89
2022-12-18T19:30:09.003Z,86.81
2022-12-18T19:32:32.242Z,86.91
2022-12-18T19:34:55.070Z,87.08
2022-12-18T19:37:18.312Z,86.71
2022-12-18T19:39:41.276Z,86.72
2022-12-18T19:42:04.500Z,86.63
2022-12-18T19:44:27.235Z,86.93
2022-12-18T19:46:51.567Z,86.66
2022-12-18T19:49:18.083Z,86.80
2022-12-18T19:51:42.655Z,87.02
2022-12-18T19:54:05.624Z,86.48
2022-12-18T19:56:32.126Z,86.28
2022-12-18T19:58:55.644Z,86.86
2022-12-18T20:01:20.031Z,87.30
2022-12-18T20:03:43.721Z,87.19
2022-12-18T20:06:14.454Z,87.75
2022-12-18T20:08:38.231Z,87.68
2022-12-18T20:11:03.844Z,87.44
2022-12-18T20:13:27.120Z,87.73
2022-12-18T20:15:50.417Z,87.44
2022-12-18T20:18:13.133Z,87.41
2022-12-18T20:20:37.483Z,87.98
2022-12-18T20:23:00.440Z,88.68
2022-12-18T20:25:23.319Z,88.92
2022-12-18T20:27:46.281Z,88.84
2022-12-18T20:30:10.012Z,88.91
2022-12-18T20:32:37.064Z,88.71
2022-12-18T20:35:00.113Z,88.71
2022-12-18T20:37:27.017Z,89.60
2022-12-18T20:39:51.683Z,90.85
2022-12-18T20:42:14.557Z,90.14
2022-12-18T20:44:37.457Z,89.87
2022-12-18T20:47:04.955Z,89.47
2022-12-18T20:49:31.432Z,89.60
2022-12-18T20:51:56.438Z,89.76
2022-12-18T20:54:19.714Z,89.88
2022-12-18T20:56:42.289Z,89.32
2022-12-18T20:59:05.188Z,89.01
2022-12-18T21:01:29.830Z,89.08
2022-12-18T21:03:53.244Z,88.69
2022-12-18T21:06:17.406Z,88.73
2022-12-18T21:08:40.111Z,89.01
2022-12-18T21:11:36.182Z,89.13
2022-12-18T21:13:58.845Z,88.77
2022-12-18T21:16:21.498Z,88.58
2022-12-18T21:18:44.245Z,88.41
2022-12-18T21:21:06.831Z,88.04
2022-12-18T21:23:29.712Z,87.87
2022-12-18T21:25:55.978Z,87.26
2022-12-18T21:28:19.121Z,87.18
2022-12-18T21:30:41.724Z,87.56
2022-12-18T21:33:04.443Z,87.21
2022-12-18T21:35:27.039Z,87.17
2022-12-18T21:37:52.308Z,87.09
2022-12-18T21:40:15.076Z,87.16
2022-12-18T21:42:56.138Z,87.44
2022-12-18T21:45:18.896Z,87.68
2022-12-18T21:47:41.562Z,88.02
2022-12-18T21:50:04.910Z,88.48
2022-12-18T21:52:31.347Z,88.23
2022-12-18T21:54:55.243Z,87.46
2022-12-18T21:57:18.727Z,87.94
2022-12-18T21:59:43.390Z,87.77
2022-12-18T22:02:11.063Z,87.97
2022-12-18T22:04:34.091Z,88.65
2022-12-18T22:06:57.218Z,88.78
2022-12-18T22:09:24.753Z,88.78
2022-12-18T22:11:47.927Z,88.87
2022-12-18T22:14:11.491Z,88.94
2022-12-18T22:16:36.162Z,89.07
2022-12-18T22:19:08.208Z,89.11
2022-12-18T22:21:33.243Z,88.97
2022-12-18T22:23:59.505Z,88.87
2022-12-18T22:26:23.604Z,89.30
2022-12-18T22:29:04.927Z,89.65
2022-12-18T22:31:27.583Z,90.11
2022-12-18T22:33:51.168Z,90.11
2022-12-18T22:36:13.720Z,90.03
2022-12-18T22:38:37.896Z,89.68
2022-12-18T22:41:00.666Z,89.30
2022-12-18T22:43:23.298Z,89.29
2022-12-18T22:45:47.699Z,89.24
2022-12-18T22:48:10.535Z,89.23
2022-12-18T22:50:33.939Z,89.44
2022-12-18T22:52:56.405Z,89.27
2022-12-18T22:55:19.325Z,89.18
2022-12-18T22:57:45.055Z,89.07
2022-12-18T23:00:13.131Z,89.42
2022-12-18T23:02:35.953Z,89.63
2022-12-18T23:04:58.616Z,89.48
2022-12-18T23:07:21.401Z,89.38
2022-12-18T23:09:44.322Z,89.55
2022-12-18T23:12:14.335Z,89.92
2022-12-18T23:14:36.964Z,90.12
2022-12-18T23:16:59.656Z,90.36
2022-12-18T23:19:23.463Z,90.22
2022-12-18T23:21:46.740Z,90.25
2022-12-18T23:24:09.680Z,90.14
2022-12-18T23:26:32.224Z,90.30
2022-12-18T23:28:56.755Z,90.30
2022-12-18T23:31:23.796Z,90.44
2022-12-18T23:33:47.822Z,90.29
2022-12-18T23:36:11.845Z,89.98
2022-12-18T23:38:35.187Z,89.69
2022-12-18T23:40:58.244Z,89.62
2022-12-18T23:43:20.904Z,89.18
2022-12-18T23:45:43.482Z,89.63
2022-12-18T23:48:06.300Z,89.58
2022-12-18T23:50:30.142Z,89.76
2022-12-18T23:52:52.915Z,89.93
2022-12-18T23:55:15.351Z,90.11
2022-12-18T23:57:37.956Z,90.13
